UAL916 KDEN-KORD
Flight info
| Callsign | UAL916 |
|---|---|
| Flight time | 1h 58m |
| Altitude | 37000 |
| Route | EMMYS8 ZIRKL PWE IRK BENKY6 |
| Aircraft | B738/M-SDE2E3FGHIRWXY/LB1 |
Departure
| Time | 2026-05-07 19:34 |
|---|---|
| Airport | Denver International Airport (KDEN) |
Arrival
| Time | 2026-05-07 21:32 |
|---|---|
| Airport | Chicago O'Hare International Airport (KORD) |
| Time | Latitude | Longitude | Altitude | Speed | Heading |
|---|---|---|---|---|---|
| 2026-05-07 18:43 | 39.85934 | -104.67578 | 5386 ft | 0 kts | 185° |
| 2026-05-07 19:17 | 39.85938 | -104.67577 | 5386 ft | 3 kts | 184° |
| 2026-05-07 19:17 | 39.85959 | -104.67575 | 5384 ft | 3 kts | 184° |
| 2026-05-07 19:18 | 39.85979 | -104.67573 | 5384 ft | 3 kts | 184° |
| 2026-05-07 19:18 | 39.86000 | -104.67571 | 5383 ft | 3 kts | 184° |
| 2026-05-07 19:18 | 39.86010 | -104.67570 | 5384 ft | 0 kts | 184° |
| 2026-05-07 19:26 | 39.86006 | -104.67573 | 5386 ft | 1 kts | 206° |
| 2026-05-07 19:26 | 39.86002 | -104.67584 | 5382 ft | 1 kts | 258° |
| 2026-05-07 19:27 | 39.86007 | -104.67604 | 5384 ft | 4 kts | 286° |
| 2026-05-07 19:27 | 39.86017 | -104.67648 | 5386 ft | 6 kts | 285° |
| 2026-05-07 19:27 | 39.86023 | -104.67713 | 5386 ft | 8 kts | 274° |
| 2026-05-07 19:27 | 39.86025 | -104.67800 | 5386 ft | 11 kts | 271° |
| 2026-05-07 19:28 | 39.86026 | -104.67905 | 5386 ft | 13 kts | 272° |
| 2026-05-07 19:28 | 39.86030 | -104.68027 | 5385 ft | 14 kts | 272° |
| 2026-05-07 19:28 | 39.86034 | -104.68166 | 5385 ft | 16 kts | 271° |
| 2026-05-07 19:28 | 39.86036 | -104.68341 | 5369 ft | 25 kts | 270° |
| 2026-05-07 19:29 | 39.86056 | -104.68494 | 5361 ft | 15 kts | 316° |
| 2026-05-07 19:29 | 39.86163 | -104.68506 | 5362 ft | 17 kts | 359° |
| 2026-05-07 19:29 | 39.86285 | -104.68508 | 5365 ft | 17 kts | 359° |
| 2026-05-07 19:29 | 39.86396 | -104.68516 | 5366 ft | 14 kts | 343° |
| 2026-05-07 19:30 | 39.86429 | -104.68570 | 5364 ft | 5 kts | 278° |
| 2026-05-07 19:30 | 39.86429 | -104.68577 | 5365 ft | 0 kts | 271° |
| 2026-05-07 19:32 | 39.86429 | -104.68579 | 5365 ft | 2 kts | 270° |
| 2026-05-07 19:32 | 39.86429 | -104.68651 | 5366 ft | 11 kts | 270° |
| 2026-05-07 19:33 | 39.86473 | -104.68721 | 5366 ft | 11 kts | 357° |
| 2026-05-07 19:33 | 39.86493 | -104.68720 | 5364 ft | 0 kts | 1° |
| 2026-05-07 19:33 | 39.86536 | -104.68719 | 5365 ft | 34 kts | 1° |
| 2026-05-07 19:33 | 39.87100 | -104.68712 | 5356 ft | 125 kts | 0° |
| 2026-05-07 19:34 | 39.88206 | -104.68698 | 5493 ft | 187 kts | 359° |
| 2026-05-07 19:34 | 39.89581 | -104.68584 | 6357 ft | 208 kts | 2° |
| 2026-05-07 19:34 | 39.91104 | -104.68457 | 6869 ft | 231 kts | 359° |
| 2026-05-07 19:34 | 39.92759 | -104.67869 | 6990 ft | 272 kts | 27° |
| 2026-05-07 19:35 | 39.94145 | -104.65947 | 6747 ft | 305 kts | 62° |
| 2026-05-07 19:35 | 39.94771 | -104.63475 | 6905 ft | 274 kts | 74° |
| 2026-05-07 19:35 | 39.95315 | -104.61147 | 6897 ft | 263 kts | 72° |
| 2026-05-07 19:35 | 39.95494 | -104.58765 | 6890 ft | 272 kts | 95° |
| 2026-05-07 19:36 | 39.95293 | -104.56196 | 7331 ft | 296 kts | 96° |
| 2026-05-07 19:36 | 39.95178 | -104.53462 | 8335 ft | 304 kts | 90° |
| 2026-05-07 19:36 | 39.95186 | -104.50746 | 9492 ft | 308 kts | 88° |
| 2026-05-07 19:36 | 39.95246 | -104.47945 | 9887 ft | 311 kts | 86° |
| 2026-05-07 19:37 | 39.95329 | -104.45108 | 9968 ft | 314 kts | 86° |
| 2026-05-07 19:37 | 39.95413 | -104.42269 | 9992 ft | 313 kts | 86° |
| 2026-05-07 19:37 | 39.95407 | -104.39432 | 9975 ft | 314 kts | 95° |
| 2026-05-07 19:37 | 39.94934 | -104.36589 | 10125 ft | 333 kts | 107° |
| 2026-05-07 19:38 | 39.94214 | -104.33652 | 10826 ft | 345 kts | 108° |
| 2026-05-07 19:38 | 39.93474 | -104.30653 | 11581 ft | 350 kts | 107° |
| 2026-05-07 19:38 | 39.92774 | -104.27606 | 11902 ft | 353 kts | 105° |
| 2026-05-07 19:38 | 39.92103 | -104.24528 | 11941 ft | 353 kts | 105° |
| 2026-05-07 19:39 | 39.91442 | -104.21441 | 11852 ft | 352 kts | 104° |
| 2026-05-07 19:39 | 39.90921 | -104.18357 | 12101 ft | 355 kts | 99° |
| 2026-05-07 19:39 | 39.90493 | -104.15155 | 12993 ft | 359 kts | 98° |
| 2026-05-07 19:39 | 39.90078 | -104.11933 | 14003 ft | 362 kts | 98° |
| 2026-05-07 19:40 | 39.89649 | -104.08674 | 14891 ft | 367 kts | 99° |
| 2026-05-07 19:40 | 39.89201 | -104.05386 | 15765 ft | 371 kts | 99° |
| 2026-05-07 19:40 | 39.88736 | -104.02053 | 16630 ft | 377 kts | 99° |
| 2026-05-07 19:40 | 39.88258 | -103.98670 | 17470 ft | 383 kts | 100° |
| 2026-05-07 19:41 | 39.87770 | -103.95233 | 18311 ft | 388 kts | 100° |
| 2026-05-07 19:41 | 39.87280 | -103.91745 | 19047 ft | 393 kts | 98° |
| 2026-05-07 19:41 | 39.87258 | -103.88186 | 19735 ft | 396 kts | 81° |
| 2026-05-07 19:41 | 39.87666 | -103.84621 | 20474 ft | 400 kts | 78° |
| 2026-05-07 19:42 | 39.88023 | -103.81043 | 21174 ft | 406 kts | 83° |
| 2026-05-07 19:42 | 39.88223 | -103.77342 | 21869 ft | 412 kts | 84° |
| 2026-05-07 19:42 | 39.88405 | -103.73593 | 22548 ft | 417 kts | 84° |
| 2026-05-07 19:42 | 39.88652 | -103.69803 | 23234 ft | 421 kts | 82° |
| 2026-05-07 19:43 | 39.89000 | -103.65995 | 23853 ft | 425 kts | 79° |
| 2026-05-07 19:43 | 39.89446 | -103.62174 | 24427 ft | 428 kts | 77° |
| 2026-05-07 19:43 | 39.89946 | -103.58332 | 24992 ft | 432 kts | 77° |
| 2026-05-07 19:43 | 39.90457 | -103.54457 | 25551 ft | 436 kts | 77° |
| 2026-05-07 19:44 | 39.90958 | -103.50539 | 26104 ft | 440 kts | 77° |
| 2026-05-07 19:44 | 39.91436 | -103.46631 | 26644 ft | 444 kts | 77° |
| 2026-05-07 19:44 | 39.91907 | -103.42637 | 27178 ft | 448 kts | 77° |
| 2026-05-07 19:44 | 39.92369 | -103.38601 | 27701 ft | 452 kts | 77° |
| 2026-05-07 19:45 | 39.92829 | -103.34514 | 28224 ft | 456 kts | 77° |
| 2026-05-07 19:45 | 39.93287 | -103.30403 | 28708 ft | 460 kts | 77° |
| 2026-05-07 19:45 | 39.93747 | -103.26260 | 29196 ft | 464 kts | 77° |
| 2026-05-07 19:45 | 39.94209 | -103.22087 | 29678 ft | 467 kts | 77° |
| 2026-05-07 19:46 | 39.94673 | -103.17877 | 30137 ft | 471 kts | 77° |
| 2026-05-07 19:46 | 39.95140 | -103.13643 | 30522 ft | 474 kts | 77° |
| 2026-05-07 19:46 | 39.95609 | -103.09375 | 30935 ft | 476 kts | 77° |
| 2026-05-07 19:46 | 39.96077 | -103.05102 | 31338 ft | 478 kts | 77° |
| 2026-05-07 19:47 | 39.96540 | -103.00857 | 31710 ft | 480 kts | 77° |
| 2026-05-07 19:47 | 39.97012 | -102.96528 | 32068 ft | 482 kts | 77° |
| 2026-05-07 19:47 | 39.97482 | -102.92192 | 32410 ft | 485 kts | 77° |
| 2026-05-07 19:47 | 39.97955 | -102.87821 | 32767 ft | 487 kts | 77° |
| 2026-05-07 19:48 | 39.98426 | -102.83438 | 33208 ft | 486 kts | 78° |
| 2026-05-07 19:48 | 39.98893 | -102.79073 | 33727 ft | 485 kts | 77° |
| 2026-05-07 19:48 | 39.99356 | -102.74729 | 34170 ft | 483 kts | 78° |
| 2026-05-07 19:48 | 39.99819 | -102.70379 | 34499 ft | 485 kts | 78° |
| 2026-05-07 19:49 | 40.00277 | -102.66074 | 34773 ft | 487 kts | 78° |
| 2026-05-07 19:49 | 40.00741 | -102.61695 | 35083 ft | 488 kts | 78° |
| 2026-05-07 19:49 | 40.01204 | -102.57305 | 35424 ft | 488 kts | 78° |
| 2026-05-07 19:49 | 40.01665 | -102.52913 | 35757 ft | 489 kts | 79° |
| 2026-05-07 19:50 | 40.02126 | -102.48510 | 36076 ft | 490 kts | 79° |
| 2026-05-07 19:50 | 40.02586 | -102.44093 | 36396 ft | 490 kts | 79° |
| 2026-05-07 19:50 | 40.03044 | -102.39671 | 36702 ft | 491 kts | 79° |
| 2026-05-07 19:50 | 40.03496 | -102.35302 | 36961 ft | 493 kts | 79° |
| 2026-05-07 19:51 | 40.04423 | -102.26301 | 36944 ft | 502 kts | 79° |
| 2026-05-07 19:51 | 40.05338 | -102.17298 | 36917 ft | 494 kts | 79° |
| 2026-05-07 19:52 | 40.06232 | -102.08439 | 36935 ft | 493 kts | 79° |
| 2026-05-07 19:52 | 40.07128 | -101.99541 | 36938 ft | 495 kts | 80° |
| 2026-05-07 19:53 | 40.08019 | -101.90603 | 36928 ft | 497 kts | 80° |
| 2026-05-07 19:53 | 40.08900 | -101.81696 | 36929 ft | 499 kts | 80° |
| 2026-05-07 19:54 | 40.09782 | -101.72694 | 36920 ft | 500 kts | 80° |
| 2026-05-07 19:54 | 40.10657 | -101.63691 | 36914 ft | 500 kts | 80° |
| 2026-05-07 19:55 | 40.11528 | -101.54659 | 36912 ft | 500 kts | 81° |
| 2026-05-07 19:55 | 40.12391 | -101.45633 | 36913 ft | 500 kts | 81° |
| 2026-05-07 19:56 | 40.13241 | -101.36619 | 36909 ft | 500 kts | 82° |
| 2026-05-07 19:56 | 40.13737 | -101.27614 | 36917 ft | 500 kts | 86° |
| 2026-05-07 19:57 | 40.13949 | -101.18536 | 36925 ft | 499 kts | 87° |
| 2026-05-07 19:57 | 40.14161 | -101.09462 | 36929 ft | 499 kts | 86° |
| 2026-05-07 19:58 | 40.14429 | -101.00381 | 36927 ft | 499 kts | 86° |
| 2026-05-07 19:58 | 40.14721 | -100.91322 | 36923 ft | 499 kts | 86° |
| 2026-05-07 19:59 | 40.15007 | -100.82327 | 36921 ft | 499 kts | 86° |
| 2026-05-07 19:59 | 40.15286 | -100.73247 | 36927 ft | 500 kts | 86° |
| 2026-05-07 20:00 | 40.15554 | -100.64159 | 36925 ft | 500 kts | 86° |
| 2026-05-07 20:00 | 40.15815 | -100.55062 | 36929 ft | 501 kts | 86° |
| 2026-05-07 20:01 | 40.16070 | -100.45934 | 36924 ft | 502 kts | 86° |
| 2026-05-07 20:01 | 40.16318 | -100.36795 | 36918 ft | 503 kts | 87° |
| 2026-05-07 20:02 | 40.16559 | -100.27648 | 36912 ft | 504 kts | 87° |
| 2026-05-07 20:02 | 40.16794 | -100.18487 | 36914 ft | 504 kts | 87° |
| 2026-05-07 20:03 | 40.17020 | -100.09376 | 36907 ft | 505 kts | 87° |
| 2026-05-07 20:03 | 40.17240 | -100.00191 | 36905 ft | 505 kts | 87° |
| 2026-05-07 20:04 | 40.17453 | -99.91004 | 36904 ft | 505 kts | 87° |
| 2026-05-07 20:04 | 40.17659 | -99.81828 | 36899 ft | 505 kts | 87° |
| 2026-05-07 20:05 | 40.17858 | -99.72651 | 36899 ft | 505 kts | 88° |
| 2026-05-07 20:05 | 40.18049 | -99.63478 | 36898 ft | 505 kts | 88° |
| 2026-05-07 20:06 | 40.18202 | -99.55846 | 36910 ft | 505 kts | 88° |
| 2026-05-07 20:06 | 40.18380 | -99.46662 | 36914 ft | 505 kts | 88° |
| 2026-05-07 20:07 | 40.18578 | -99.35978 | 36908 ft | 505 kts | 88° |
| 2026-05-07 20:07 | 40.18714 | -99.28328 | 36909 ft | 506 kts | 88° |
| 2026-05-07 20:08 | 40.18871 | -99.19127 | 36905 ft | 506 kts | 88° |
| 2026-05-07 20:08 | 40.19020 | -99.09912 | 36903 ft | 507 kts | 88° |
| 2026-05-07 20:09 | 40.19163 | -99.00698 | 36900 ft | 507 kts | 88° |
| 2026-05-07 20:10 | 40.19362 | -98.86855 | 36906 ft | 507 kts | 88° |
| 2026-05-07 20:10 | 40.19487 | -98.77628 | 36907 ft | 508 kts | 88° |
| 2026-05-07 20:11 | 40.19604 | -98.68386 | 36907 ft | 508 kts | 88° |
| 2026-05-07 20:11 | 40.19712 | -98.59208 | 36907 ft | 508 kts | 88° |
| 2026-05-07 20:12 | 40.19815 | -98.49946 | 36908 ft | 508 kts | 88° |
| 2026-05-07 20:12 | 40.19910 | -98.40689 | 36909 ft | 508 kts | 89° |
| 2026-05-07 20:13 | 40.19998 | -98.31447 | 36908 ft | 508 kts | 89° |
| 2026-05-07 20:13 | 40.20077 | -98.22256 | 36904 ft | 508 kts | 89° |
| 2026-05-07 20:14 | 40.20150 | -98.12996 | 36904 ft | 509 kts | 89° |
| 2026-05-07 20:14 | 40.20216 | -98.03724 | 36903 ft | 509 kts | 89° |
| 2026-05-07 20:15 | 40.20274 | -97.94459 | 36904 ft | 509 kts | 89° |
| 2026-05-07 20:15 | 40.20325 | -97.85256 | 36910 ft | 509 kts | 89° |
| 2026-05-07 20:16 | 40.20369 | -97.75980 | 36914 ft | 509 kts | 89° |
| 2026-05-07 20:16 | 40.20405 | -97.66705 | 36917 ft | 509 kts | 89° |
| 2026-05-07 20:17 | 40.20434 | -97.57425 | 36918 ft | 510 kts | 89° |
| 2026-05-07 20:17 | 40.20455 | -97.48200 | 36914 ft | 510 kts | 89° |
| 2026-05-07 20:18 | 40.20469 | -97.38905 | 36915 ft | 510 kts | 89° |
| 2026-05-07 20:18 | 40.20476 | -97.29661 | 36907 ft | 511 kts | 89° |
| 2026-05-07 20:19 | 40.20475 | -97.20346 | 36897 ft | 511 kts | 89° |
| 2026-05-07 20:19 | 40.20467 | -97.11033 | 36896 ft | 512 kts | 89° |
| 2026-05-07 20:20 | 40.20451 | -97.01711 | 36902 ft | 512 kts | 89° |
| 2026-05-07 20:20 | 40.20428 | -96.92388 | 36903 ft | 512 kts | 90° |
| 2026-05-07 20:21 | 40.20397 | -96.83108 | 36908 ft | 512 kts | 90° |
| 2026-05-07 20:21 | 40.20359 | -96.73779 | 36906 ft | 513 kts | 90° |
| 2026-05-07 20:22 | 40.20314 | -96.64445 | 36908 ft | 513 kts | 90° |
| 2026-05-07 20:22 | 40.20261 | -96.55108 | 36906 ft | 513 kts | 90° |
| 2026-05-07 20:23 | 40.20200 | -96.45764 | 36907 ft | 513 kts | 90° |
| 2026-05-07 20:23 | 40.20132 | -96.36433 | 36908 ft | 513 kts | 90° |
| 2026-05-07 20:24 | 40.20058 | -96.27152 | 36898 ft | 513 kts | 90° |
| 2026-05-07 20:24 | 40.19980 | -96.17814 | 36907 ft | 513 kts | 90° |
| 2026-05-07 20:25 | 40.19943 | -96.08491 | 36909 ft | 513 kts | 89° |
| 2026-05-07 20:25 | 40.19919 | -95.99213 | 36908 ft | 513 kts | 90° |
| 2026-05-07 20:26 | 40.19883 | -95.89874 | 36915 ft | 513 kts | 90° |
| 2026-05-07 20:26 | 40.19834 | -95.80513 | 36911 ft | 514 kts | 90° |
| 2026-05-07 20:27 | 40.19774 | -95.71153 | 36921 ft | 514 kts | 90° |
| 2026-05-07 20:27 | 40.19708 | -95.61841 | 36915 ft | 515 kts | 90° |
| 2026-05-07 20:28 | 40.19634 | -95.52475 | 36914 ft | 515 kts | 90° |
| 2026-05-07 20:28 | 40.19552 | -95.43092 | 36918 ft | 516 kts | 90° |
| 2026-05-07 20:29 | 40.19463 | -95.33705 | 36924 ft | 516 kts | 90° |
| 2026-05-07 20:29 | 40.19366 | -95.24306 | 36910 ft | 517 kts | 90° |
| 2026-05-07 20:30 | 40.19261 | -95.14909 | 36927 ft | 517 kts | 90° |
| 2026-05-07 20:30 | 40.19150 | -95.05571 | 36912 ft | 517 kts | 90° |
| 2026-05-07 20:31 | 40.19030 | -94.96162 | 36922 ft | 517 kts | 90° |
| 2026-05-07 20:31 | 40.18903 | -94.86765 | 36923 ft | 517 kts | 90° |
| 2026-05-07 20:32 | 40.18768 | -94.77366 | 36926 ft | 517 kts | 90° |
| 2026-05-07 20:32 | 40.18626 | -94.68027 | 36929 ft | 517 kts | 91° |
| 2026-05-07 20:33 | 40.18476 | -94.58620 | 36933 ft | 517 kts | 91° |
| 2026-05-07 20:33 | 40.18318 | -94.49216 | 36939 ft | 517 kts | 91° |
| 2026-05-07 20:34 | 40.18153 | -94.39800 | 36942 ft | 518 kts | 91° |
| 2026-05-07 20:34 | 40.17980 | -94.30381 | 36948 ft | 518 kts | 91° |
| 2026-05-07 20:35 | 40.17799 | -94.20959 | 36951 ft | 518 kts | 91° |
| 2026-05-07 20:35 | 40.17610 | -94.11533 | 36951 ft | 519 kts | 91° |
| 2026-05-07 20:36 | 40.17415 | -94.02163 | 36958 ft | 519 kts | 91° |
| 2026-05-07 20:36 | 40.17211 | -93.92726 | 36955 ft | 519 kts | 91° |
| 2026-05-07 20:37 | 40.16999 | -93.83286 | 36957 ft | 519 kts | 91° |
| 2026-05-07 20:37 | 40.16779 | -93.73834 | 36961 ft | 520 kts | 91° |
| 2026-05-07 20:38 | 40.16551 | -93.64386 | 36964 ft | 520 kts | 91° |
| 2026-05-07 20:38 | 40.16317 | -93.54979 | 36964 ft | 521 kts | 91° |
| 2026-05-07 20:39 | 40.16074 | -93.45510 | 36966 ft | 521 kts | 91° |
| 2026-05-07 20:39 | 40.15822 | -93.36027 | 36970 ft | 522 kts | 91° |
| 2026-05-07 20:40 | 40.15563 | -93.26542 | 36974 ft | 522 kts | 91° |
| 2026-05-07 20:40 | 40.15295 | -93.17037 | 36975 ft | 523 kts | 92° |
| 2026-05-07 20:41 | 40.15020 | -93.07530 | 36977 ft | 523 kts | 91° |
| 2026-05-07 20:41 | 40.14736 | -92.98015 | 36942 ft | 524 kts | 92° |
| 2026-05-07 20:42 | 40.14444 | -92.88469 | 36938 ft | 524 kts | 92° |
| 2026-05-07 20:42 | 40.14147 | -92.79018 | 36974 ft | 523 kts | 92° |
| 2026-05-07 20:43 | 40.13842 | -92.69499 | 36983 ft | 524 kts | 92° |
| 2026-05-07 20:43 | 40.13912 | -92.59983 | 36977 ft | 524 kts | 82° |
| 2026-05-07 20:43 | 40.14591 | -92.55333 | 36961 ft | 518 kts | 66° |
| 2026-05-07 20:44 | 40.16080 | -92.51185 | 37003 ft | 506 kts | 52° |
| 2026-05-07 20:44 | 40.19734 | -92.43310 | 36986 ft | 510 kts | 55° |
| 2026-05-07 20:45 | 40.22924 | -92.34941 | 36985 ft | 515 kts | 59° |
| 2026-05-07 20:45 | 40.25943 | -92.26412 | 36979 ft | 516 kts | 59° |
| 2026-05-07 20:46 | 40.29024 | -92.17913 | 36970 ft | 515 kts | 58° |
| 2026-05-07 20:46 | 40.32138 | -92.09527 | 36966 ft | 514 kts | 58° |
| 2026-05-07 20:47 | 40.35279 | -92.01117 | 36961 ft | 511 kts | 58° |
| 2026-05-07 20:47 | 40.38389 | -91.92753 | 36972 ft | 509 kts | 58° |
| 2026-05-07 20:48 | 40.41474 | -91.84430 | 36972 ft | 511 kts | 58° |
| 2026-05-07 20:48 | 40.44581 | -91.76011 | 36954 ft | 513 kts | 58° |
| 2026-05-07 20:49 | 40.47695 | -91.67543 | 36952 ft | 514 kts | 58° |
| 2026-05-07 20:49 | 40.50778 | -91.59133 | 36945 ft | 514 kts | 58° |
| 2026-05-07 20:50 | 40.53871 | -91.50676 | 36939 ft | 513 kts | 58° |
| 2026-05-07 20:50 | 40.56960 | -91.42204 | 36936 ft | 512 kts | 58° |
| 2026-05-07 20:51 | 40.60032 | -91.33752 | 36936 ft | 511 kts | 58° |
| 2026-05-07 20:51 | 40.63090 | -91.25317 | 36937 ft | 510 kts | 58° |
| 2026-05-07 20:52 | 40.66137 | -91.16887 | 36951 ft | 509 kts | 58° |
| 2026-05-07 20:52 | 40.69155 | -91.08516 | 36950 ft | 509 kts | 58° |
| 2026-05-07 20:53 | 40.72191 | -91.00069 | 36952 ft | 509 kts | 59° |
| 2026-05-07 20:53 | 40.75236 | -90.91580 | 36439 ft | 516 kts | 59° |
| 2026-05-07 20:53 | 40.76766 | -90.87302 | 36003 ft | 514 kts | 59° |
| 2026-05-07 20:54 | 40.78278 | -90.83060 | 35535 ft | 509 kts | 59° |
| 2026-05-07 20:54 | 40.79781 | -90.78834 | 35055 ft | 505 kts | 59° |
| 2026-05-07 20:54 | 40.81271 | -90.74641 | 34601 ft | 504 kts | 59° |
| 2026-05-07 20:54 | 40.82757 | -90.70458 | 34146 ft | 502 kts | 59° |
| 2026-05-07 20:55 | 40.84237 | -90.66289 | 33647 ft | 500 kts | 59° |
| 2026-05-07 20:55 | 40.85712 | -90.62130 | 33131 ft | 499 kts | 58° |
| 2026-05-07 20:55 | 40.87188 | -90.57963 | 32614 ft | 503 kts | 58° |
| 2026-05-07 20:55 | 40.88666 | -90.53793 | 32118 ft | 508 kts | 58° |
| 2026-05-07 20:56 | 40.90159 | -90.49569 | 31618 ft | 508 kts | 58° |
| 2026-05-07 20:56 | 40.91649 | -90.45337 | 31129 ft | 506 kts | 58° |
| 2026-05-07 20:56 | 40.93130 | -90.41118 | 30645 ft | 505 kts | 58° |
| 2026-05-07 20:56 | 40.94606 | -90.36910 | 30170 ft | 503 kts | 58° |
| 2026-05-07 20:57 | 40.95578 | -90.34135 | 29823 ft | 502 kts | 58° |
| 2026-05-07 20:57 | 40.97046 | -90.29943 | 29267 ft | 500 kts | 58° |
| 2026-05-07 20:57 | 40.98509 | -90.25763 | 28722 ft | 503 kts | 58° |
| 2026-05-07 20:57 | 40.99991 | -90.21534 | 28194 ft | 508 kts | 58° |
| 2026-05-07 20:58 | 41.01478 | -90.17283 | 27674 ft | 510 kts | 58° |
| 2026-05-07 20:58 | 41.02965 | -90.13015 | 27153 ft | 509 kts | 58° |
| 2026-05-07 20:58 | 41.04444 | -90.08759 | 26650 ft | 509 kts | 58° |
| 2026-05-07 20:58 | 41.05920 | -90.04501 | 26138 ft | 508 kts | 58° |
| 2026-05-07 20:59 | 41.07392 | -90.00250 | 25667 ft | 507 kts | 58° |
| 2026-05-07 20:59 | 41.08864 | -89.95995 | 25177 ft | 507 kts | 58° |
| 2026-05-07 20:59 | 41.10310 | -89.91810 | 24712 ft | 505 kts | 58° |
| 2026-05-07 20:59 | 41.11768 | -89.87583 | 24247 ft | 503 kts | 58° |
| 2026-05-07 21:00 | 41.13217 | -89.83375 | 23788 ft | 499 kts | 58° |
| 2026-05-07 21:00 | 41.14651 | -89.79202 | 23300 ft | 495 kts | 58° |
| 2026-05-07 21:00 | 41.16064 | -89.75080 | 22738 ft | 484 kts | 58° |
| 2026-05-07 21:00 | 41.17443 | -89.71048 | 22197 ft | 473 kts | 58° |
| 2026-05-07 21:01 | 41.18787 | -89.67115 | 21667 ft | 462 kts | 58° |
| 2026-05-07 21:01 | 41.20100 | -89.63272 | 21145 ft | 452 kts | 59° |
| 2026-05-07 21:01 | 41.21391 | -89.59496 | 20623 ft | 443 kts | 59° |
| 2026-05-07 21:01 | 41.22658 | -89.55791 | 20121 ft | 435 kts | 59° |
| 2026-05-07 21:02 | 41.23880 | -89.52211 | 19627 ft | 428 kts | 60° |
| 2026-05-07 21:02 | 41.25099 | -89.48637 | 19141 ft | 421 kts | 60° |
| 2026-05-07 21:02 | 41.26297 | -89.45120 | 18671 ft | 415 kts | 61° |
| 2026-05-07 21:02 | 41.27468 | -89.41671 | 18170 ft | 401 kts | 61° |
| 2026-05-07 21:03 | 41.28595 | -89.38343 | 17617 ft | 389 kts | 61° |
| 2026-05-07 21:03 | 41.29692 | -89.35097 | 17071 ft | 379 kts | 61° |
| 2026-05-07 21:03 | 41.30759 | -89.31941 | 16538 ft | 370 kts | 61° |
| 2026-05-07 21:03 | 41.31801 | -89.28858 | 16019 ft | 362 kts | 61° |
| 2026-05-07 21:04 | 41.32823 | -89.25833 | 15495 ft | 355 kts | 61° |
| 2026-05-07 21:04 | 41.33826 | -89.22863 | 14994 ft | 349 kts | 61° |
| 2026-05-07 21:04 | 41.34800 | -89.19975 | 14505 ft | 344 kts | 61° |
| 2026-05-07 21:04 | 41.35774 | -89.17085 | 14016 ft | 340 kts | 61° |
| 2026-05-07 21:05 | 41.36736 | -89.14226 | 13512 ft | 337 kts | 61° |
| 2026-05-07 21:05 | 41.37688 | -89.11393 | 12972 ft | 334 kts | 61° |
| 2026-05-07 21:05 | 41.38634 | -89.08577 | 12440 ft | 331 kts | 61° |
| 2026-05-07 21:05 | 41.39569 | -89.05788 | 12109 ft | 331 kts | 61° |
| 2026-05-07 21:06 | 41.40512 | -89.02980 | 12063 ft | 331 kts | 61° |
| 2026-05-07 21:06 | 41.41447 | -89.00184 | 12044 ft | 329 kts | 61° |
| 2026-05-07 21:06 | 41.42378 | -88.97399 | 12047 ft | 330 kts | 61° |
| 2026-05-07 21:06 | 41.43313 | -88.94599 | 12048 ft | 330 kts | 61° |
| 2026-05-07 21:07 | 41.44235 | -88.91835 | 12047 ft | 330 kts | 61° |
| 2026-05-07 21:07 | 41.45166 | -88.89040 | 12047 ft | 330 kts | 61° |
| 2026-05-07 21:07 | 41.46087 | -88.86272 | 12053 ft | 330 kts | 61° |
| 2026-05-07 21:07 | 41.47023 | -88.83457 | 12051 ft | 331 kts | 61° |
| 2026-05-07 21:08 | 41.47963 | -88.80628 | 12065 ft | 336 kts | 61° |
| 2026-05-07 21:08 | 41.48905 | -88.77787 | 12053 ft | 332 kts | 61° |
| 2026-05-07 21:08 | 41.49831 | -88.74988 | 12043 ft | 328 kts | 62° |
| 2026-05-07 21:08 | 41.50753 | -88.72203 | 12046 ft | 329 kts | 61° |
| 2026-05-07 21:09 | 41.51714 | -88.69401 | 11713 ft | 334 kts | 59° |
| 2026-05-07 21:09 | 41.52789 | -88.66659 | 11433 ft | 330 kts | 56° |
| 2026-05-07 21:09 | 41.53876 | -88.63987 | 11178 ft | 324 kts | 56° |
| 2026-05-07 21:09 | 41.54918 | -88.61396 | 10935 ft | 318 kts | 57° |
| 2026-05-07 21:10 | 41.55952 | -88.58790 | 10717 ft | 317 kts | 57° |
| 2026-05-07 21:10 | 41.57046 | -88.56254 | 10491 ft | 313 kts | 50° |
| 2026-05-07 21:10 | 41.58380 | -88.53985 | 10276 ft | 309 kts | 43° |
| 2026-05-07 21:10 | 41.59853 | -88.51913 | 10050 ft | 306 kts | 39° |
| 2026-05-07 21:11 | 41.61359 | -88.49908 | 9827 ft | 305 kts | 39° |
| 2026-05-07 21:11 | 41.62850 | -88.47885 | 9589 ft | 305 kts | 40° |
| 2026-05-07 21:11 | 41.65764 | -88.43769 | 9095 ft | 304 kts | 41° |
| 2026-05-07 21:12 | 41.67182 | -88.41713 | 8865 ft | 304 kts | 42° |
| 2026-05-07 21:12 | 41.68625 | -88.39607 | 8626 ft | 303 kts | 43° |
| 2026-05-07 21:12 | 41.70029 | -88.37553 | 8380 ft | 302 kts | 43° |
| 2026-05-07 21:12 | 41.71448 | -88.35490 | 8156 ft | 300 kts | 41° |
| 2026-05-07 21:13 | 41.72932 | -88.33552 | 8042 ft | 294 kts | 37° |
| 2026-05-07 21:13 | 41.74452 | -88.31756 | 8012 ft | 291 kts | 36° |
| 2026-05-07 21:13 | 41.75994 | -88.29974 | 8028 ft | 293 kts | 36° |
| 2026-05-07 21:13 | 41.77542 | -88.28174 | 8009 ft | 294 kts | 36° |
| 2026-05-07 21:14 | 41.79082 | -88.26360 | 8004 ft | 294 kts | 37° |
| 2026-05-07 21:14 | 41.80590 | -88.24568 | 8006 ft | 293 kts | 37° |
| 2026-05-07 21:14 | 41.82112 | -88.22749 | 7999 ft | 293 kts | 37° |
| 2026-05-07 21:14 | 41.83640 | -88.20916 | 7995 ft | 293 kts | 37° |
| 2026-05-07 21:15 | 41.85158 | -88.19092 | 7999 ft | 293 kts | 37° |
| 2026-05-07 21:15 | 41.86674 | -88.17270 | 7999 ft | 292 kts | 37° |
| 2026-05-07 21:15 | 41.88062 | -88.15256 | 7985 ft | 298 kts | 56° |
| 2026-05-07 21:15 | 41.88641 | -88.12605 | 7930 ft | 307 kts | 86° |
| 2026-05-07 21:16 | 41.88597 | -88.09730 | 7716 ft | 309 kts | 93° |
| 2026-05-07 21:16 | 41.88479 | -88.06847 | 7555 ft | 308 kts | 92° |
| 2026-05-07 21:16 | 41.88438 | -88.03987 | 7403 ft | 305 kts | 90° |
| 2026-05-07 21:16 | 41.88435 | -88.01165 | 7251 ft | 301 kts | 89° |
| 2026-05-07 21:17 | 41.88432 | -87.98362 | 7095 ft | 299 kts | 89° |
| 2026-05-07 21:17 | 41.88436 | -87.95573 | 6944 ft | 299 kts | 89° |
| 2026-05-07 21:17 | 41.88440 | -87.92785 | 6801 ft | 299 kts | 90° |
| 2026-05-07 21:17 | 41.88442 | -87.89999 | 6643 ft | 298 kts | 90° |
| 2026-05-07 21:18 | 41.88441 | -87.87226 | 6492 ft | 297 kts | 89° |
| 2026-05-07 21:18 | 41.88438 | -87.84471 | 6417 ft | 293 kts | 90° |
| 2026-05-07 21:18 | 41.88435 | -87.81757 | 6427 ft | 288 kts | 90° |
| 2026-05-07 21:18 | 41.88431 | -87.79049 | 6449 ft | 293 kts | 90° |
| 2026-05-07 21:19 | 41.88428 | -87.76293 | 6455 ft | 297 kts | 90° |
| 2026-05-07 21:19 | 41.88425 | -87.73526 | 6447 ft | 296 kts | 90° |
| 2026-05-07 21:19 | 41.88421 | -87.70760 | 6440 ft | 295 kts | 90° |
| 2026-05-07 21:19 | 41.88417 | -87.68010 | 6433 ft | 294 kts | 90° |
| 2026-05-07 21:20 | 41.88412 | -87.65305 | 6439 ft | 293 kts | 90° |
| 2026-05-07 21:20 | 41.88407 | -87.62533 | 6447 ft | 294 kts | 90° |
| 2026-05-07 21:20 | 41.88401 | -87.59822 | 6459 ft | 295 kts | 90° |
| 2026-05-07 21:20 | 41.88395 | -87.57069 | 6450 ft | 295 kts | 90° |
| 2026-05-07 21:21 | 41.88388 | -87.54316 | 6449 ft | 295 kts | 90° |
| 2026-05-07 21:21 | 41.88379 | -87.51556 | 6450 ft | 295 kts | 90° |
| 2026-05-07 21:21 | 41.88371 | -87.48803 | 6455 ft | 295 kts | 90° |
| 2026-05-07 21:21 | 41.88389 | -87.46048 | 6454 ft | 295 kts | 89° |
| 2026-05-07 21:22 | 41.88426 | -87.43296 | 6455 ft | 295 kts | 89° |
| 2026-05-07 21:22 | 41.88471 | -87.40556 | 6461 ft | 295 kts | 89° |
| 2026-05-07 21:22 | 41.88512 | -87.37793 | 6453 ft | 295 kts | 89° |
| 2026-05-07 21:22 | 41.88723 | -87.35056 | 6374 ft | 297 kts | 69° |
| 2026-05-07 21:23 | 41.89868 | -87.32818 | 6295 ft | 291 kts | 35° |
| 2026-05-07 21:23 | 41.91664 | -87.31723 | 6137 ft | 283 kts | 6° |
| 2026-05-07 21:23 | 41.93602 | -87.31432 | 5888 ft | 277 kts | 359° |
| 2026-05-07 21:23 | 41.95435 | -87.31672 | 5596 ft | 262 kts | 333° |
| 2026-05-07 21:24 | 41.96810 | -87.33109 | 5303 ft | 247 kts | 300° |
| 2026-05-07 21:24 | 41.97297 | -87.35254 | 5017 ft | 239 kts | 273° |
| 2026-05-07 21:24 | 41.97334 | -87.37465 | 4792 ft | 234 kts | 268° |
| 2026-05-07 21:24 | 41.97294 | -87.39616 | 4642 ft | 226 kts | 268° |
| 2026-05-07 21:25 | 41.97250 | -87.41689 | 4496 ft | 218 kts | 268° |
| 2026-05-07 21:25 | 41.97206 | -87.43699 | 4395 ft | 213 kts | 268° |
| 2026-05-07 21:25 | 41.97160 | -87.45681 | 4264 ft | 212 kts | 268° |
| 2026-05-07 21:25 | 41.97113 | -87.47664 | 4126 ft | 213 kts | 268° |
| 2026-05-07 21:26 | 41.97066 | -87.49656 | 4059 ft | 214 kts | 268° |
| 2026-05-07 21:26 | 41.97018 | -87.51658 | 4032 ft | 213 kts | 268° |
| 2026-05-07 21:26 | 41.96970 | -87.53649 | 4025 ft | 213 kts | 268° |
| 2026-05-07 21:26 | 41.96921 | -87.55642 | 4039 ft | 214 kts | 268° |
| 2026-05-07 21:27 | 41.96869 | -87.57640 | 4031 ft | 214 kts | 268° |
| 2026-05-07 21:27 | 41.96818 | -87.59602 | 4019 ft | 212 kts | 268° |
| 2026-05-07 21:27 | 41.96767 | -87.61578 | 4028 ft | 211 kts | 268° |
| 2026-05-07 21:27 | 41.96716 | -87.63555 | 4036 ft | 212 kts | 268° |
| 2026-05-07 21:28 | 41.96663 | -87.65543 | 4037 ft | 213 kts | 268° |
| 2026-05-07 21:28 | 41.96628 | -87.67548 | 3838 ft | 218 kts | 269° |
| 2026-05-07 21:28 | 41.96624 | -87.69556 | 3551 ft | 211 kts | 270° |
| 2026-05-07 21:28 | 41.96621 | -87.71475 | 3274 ft | 200 kts | 270° |
| 2026-05-07 21:29 | 41.96616 | -87.73294 | 3009 ft | 189 kts | 269° |
| 2026-05-07 21:29 | 41.96611 | -87.75026 | 2752 ft | 181 kts | 269° |
| 2026-05-07 21:29 | 41.96605 | -87.76663 | 2512 ft | 167 kts | 270° |
| 2026-05-07 21:29 | 41.96602 | -87.78139 | 2304 ft | 150 kts | 270° |
| 2026-05-07 21:30 | 41.96598 | -87.79479 | 2124 ft | 138 kts | 270° |
| 2026-05-07 21:30 | 41.96594 | -87.80705 | 1938 ft | 128 kts | 270° |
| 2026-05-07 21:30 | 41.96591 | -87.81886 | 1756 ft | 125 kts | 271° |
| 2026-05-07 21:30 | 41.96589 | -87.83021 | 1594 ft | 121 kts | 270° |
| 2026-05-07 21:31 | 41.96586 | -87.84168 | 1410 ft | 123 kts | 269° |
| 2026-05-07 21:31 | 41.96584 | -87.85296 | 1245 ft | 122 kts | 268° |
| 2026-05-07 21:31 | 41.96581 | -87.86444 | 1078 ft | 121 kts | 268° |
| 2026-05-07 21:31 | 41.96580 | -87.87535 | 921 ft | 112 kts | 268° |
| 2026-05-07 21:32 | 41.96577 | -87.88567 | 790 ft | 110 kts | 269° |
| 2026-05-07 21:32 | 41.96575 | -87.89591 | 681 ft | 107 kts | 270° |
| 2026-05-07 21:32 | 41.96578 | -87.90454 | 668 ft | 77 kts | 271° |
| 2026-05-07 21:32 | 41.96573 | -87.90911 | 668 ft | 27 kts | 265° |
| 2026-05-07 21:33 | 41.96561 | -87.91163 | 669 ft | 26 kts | 282° |